Time;durP1;ratioP1;P1;durP2;ratioP2;P2;SDS_P1;SDS_P2;PMS_P1;PMS_P2;Temp;Humidity;BMP_temperature;BMP_pressure;BME280_temperature;BME280_humidity;BME280_pressure;Samples;Min_cycle;Max_cycle;Signal;HPM_P1;HPM_P2
2022/07/18 00:00:44;;;;;;;59.87;3.83;;;;;;;;;;5092689;28;20527;-68
2022/07/18 00:03:11;;;;;;;60.57;4.37;;;;;;;;;;5092528;28;20919;-69
2022/07/18 00:05:38;;;;;;;60.00;3.77;;;;;;;;;;5092318;28;20469;-68
2022/07/18 00:08:05;;;;;;;60.57;4.27;;;;;;;;;;5091987;28;20483;-69
2022/07/18 00:10:32;;;;;;;59.40;3.90;;;;;;;;;;5092535;28;20444;-68
2022/07/18 00:13:01;;;;;;;59.40;4.00;;;;;;;;;;5092473;28;20840;-69
2022/07/18 00:15:28;;;;;;;60.10;3.50;;;;;;;;;;5092634;28;20467;-69
2022/07/18 00:17:55;;;;;;;59.80;4.50;;;;;;;;;;5092065;28;20447;-69
2022/07/18 00:20:22;;;;;;;60.70;4.50;;;;;;;;;;5092303;28;20542;-68
2022/07/18 00:22:49;;;;;;;60.17;4.30;;;;;;;;;;5092077;28;20450;-68
2022/07/18 00:25:16;;;;;;;61.40;3.40;;;;;;;;;;5091518;28;21075;-68
2022/07/18 00:27:44;;;;;;;60.67;4.67;;;;;;;;;;5091987;28;20487;-69
2022/07/18 00:30:13;;;;;;;59.80;4.10;;;;;;;;;;5092262;28;20443;-69
2022/07/18 00:32:40;;;;;;;61.73;5.37;;;;;;;;;;5092492;28;20455;-68
2022/07/18 00:35:07;;;;;;;61.47;4.03;;;;;;;;;;5091923;28;20474;-68
2022/07/18 00:37:35;;;;;;;65.73;4.20;;;;;;;;;;5091642;28;20436;-69
2022/07/18 00:40:02;;;;;;;59.60;3.73;;;;;;;;;;5092259;28;20443;-69
2022/07/18 00:42:29;;;;;;;60.10;4.17;;;;;;;;;;5091932;28;20446;-69
2022/07/18 00:44:57;;;;;;;59.67;3.77;;;;;;;;;;5091979;28;20460;-68
2022/07/18 00:47:25;;;;;;;60.33;4.70;;;;;;;;;;5091317;28;20489;-68
2022/07/18 00:49:52;;;;;;;59.73;4.13;;;;;;;;;;5091788;28;20449;-69
2022/07/18 00:52:19;;;;;;;60.00;4.47;;;;;;;;;;5091949;28;20446;-69
2022/07/18 00:54:47;;;;;;;59.47;3.90;;;;;;;;;;5091736;28;20462;-69
2022/07/18 00:57:14;;;;;;;61.27;4.47;;;;;;;;;;5091582;28;20442;-68
2022/07/18 01:02:28;;;;;;;59.60;3.50;;;;;;;;;;5091718;28;20791;-69
2022/07/18 01:04:56;;;;;;;61.03;4.10;;;;;;;;;;5091853;28;20466;-68
2022/07/18 01:07:23;;;;;;;60.20;3.97;;;;;;;;;;5091491;28;20450;-69
2022/07/18 01:09:50;;;;;;;61.47;4.40;;;;;;;;;;5091734;28;20831;-69
2022/07/18 01:12:17;;;;;;;60.47;4.20;;;;;;;;;;5091632;28;20448;-69
2022/07/18 01:14:44;;;;;;;60.30;4.07;;;;;;;;;;5091421;28;20470;-69
2022/07/18 01:17:15;;;;;;;59.50;3.77;;;;;;;;;;5091404;28;20448;-68
2022/07/18 01:19:45;;;;;;;60.37;4.40;;;;;;;;;;5091737;28;20446;-69
2022/07/18 01:22:14;;;;;;;60.57;3.90;;;;;;;;;;5091653;28;20453;-68
2022/07/18 01:24:41;;;;;;;59.40;3.90;;;;;;;;;;5091433;28;20473;-69
2022/07/18 01:27:10;;;;;;;62.50;4.30;;;;;;;;;;5091793;28;20443;-69
2022/07/18 01:29:37;;;;;;;60.50;4.63;;;;;;;;;;5091742;28;20459;-69
2022/07/18 01:32:08;;;;;;;59.00;3.90;;;;;;;;;;5091486;28;20445;-68
2022/07/18 01:34:35;;;;;;;59.97;3.87;;;;;;;;;;5091264;28;20565;-69
2022/07/18 01:37:03;;;;;;;60.87;4.50;;;;;;;;;;5093930;28;20448;-68
2022/07/18 01:39:32;;;;;;;59.47;3.50;;;;;;;;;;5094892;28;21077;-69
2022/07/18 01:41:59;;;;;;;78.57;4.73;;;;;;;;;;5095003;28;20456;-69
2022/07/18 01:44:27;;;;;;;59.97;4.17;;;;;;;;;;5095197;28;20480;-70
2022/07/18 01:46:55;;;;;;;59.47;4.10;;;;;;;;;;5094968;28;20446;-68
2022/07/18 01:49:22;;;;;;;60.20;4.20;;;;;;;;;;5093184;28;20788;-68
2022/07/18 01:51:50;;;;;;;60.37;4.10;;;;;;;;;;5095100;28;20439;-70
2022/07/18 01:54:17;;;;;;;61.10;3.80;;;;;;;;;;5095011;28;20461;-70
2022/07/18 01:56:46;;;;;;;60.67;4.00;;;;;;;;;;5095067;28;20891;-70
2022/07/18 01:59:13;;;;;;;61.10;4.37;;;;;;;;;;5094682;28;20574;-69
2022/07/18 02:01:40;;;;;;;59.80;3.93;;;;;;;;;;5094915;28;20446;-69
2022/07/18 02:04:07;;;;;;;60.87;4.10;;;;;;;;;;5094782;28;20475;-69
2022/07/18 02:06:34;;;;;;;61.37;4.20;;;;;;;;;;5094774;28;20477;-70
2022/07/18 02:09:02;;;;;;;60.07;4.10;;;;;;;;;;5094660;28;20450;-69
2022/07/18 02:11:29;;;;;;;60.73;4.03;;;;;;;;;;5094740;28;20449;-69
2022/07/18 02:13:57;;;;;;;60.77;3.70;;;;;;;;;;5094529;28;20836;-69
2022/07/18 02:16:24;;;;;;;60.13;4.30;;;;;;;;;;5094575;28;20447;-70
2022/07/18 02:18:51;;;;;;;60.13;3.90;;;;;;;;;;5094412;28;20509;-69
2022/07/18 02:21:19;;;;;;;60.20;3.90;;;;;;;;;;5094529;28;20453;-69
2022/07/18 02:23:46;;;;;;;59.90;4.20;;;;;;;;;;5094448;28;20476;-69
2022/07/18 02:26:13;;;;;;;60.30;3.87;;;;;;;;;;5094459;28;20446;-70
2022/07/18 02:28:41;;;;;;;59.30;3.93;;;;;;;;;;5094243;28;20446;-69
2022/07/18 02:31:09;;;;;;;60.10;3.90;;;;;;;;;;5094256;28;20829;-69
2022/07/18 02:33:36;;;;;;;59.30;3.30;;;;;;;;;;5094246;28;20468;-69
2022/07/18 02:36:04;;;;;;;60.37;4.20;;;;;;;;;;5094335;28;20450;-69
2022/07/18 02:38:32;;;;;;;60.10;3.60;;;;;;;;;;5093946;28;20506;-69
2022/07/18 02:40:59;;;;;;;59.10;3.40;;;;;;;;;;5094139;28;20461;-70
2022/07/18 02:43:27;;;;;;;60.57;3.70;;;;;;;;;;5093793;28;20454;-69
2022/07/18 02:45:54;;;;;;;59.50;3.90;;;;;;;;;;5094163;28;20871;-68
2022/07/18 02:48:22;;;;;;;59.47;3.87;;;;;;;;;;5093297;28;20535;-70
2022/07/18 02:50:50;;;;;;;59.50;3.60;;;;;;;;;;5097140;28;20456;-70
2022/07/18 02:53:19;;;;;;;60.60;4.20;;;;;;;;;;5102102;28;20510;-69
2022/07/18 02:55:46;;;;;;;60.47;4.20;;;;;;;;;;5097967;28;20471;-70
2022/07/18 02:58:13;;;;;;;59.80;3.93;;;;;;;;;;5093274;28;21017;-66
2022/07/18 03:00:40;;;;;;;59.87;3.60;;;;;;;;;;5093894;28;20454;-70
2022/07/18 03:03:07;;;;;;;59.70;3.50;;;;;;;;;;5093633;28;20443;-68
2022/07/18 03:05:36;;;;;;;59.83;3.93;;;;;;;;;;5093710;28;20484;-69
2022/07/18 03:08:03;;;;;;;59.57;3.47;;;;;;;;;;5093340;28;20442;-69
2022/07/18 03:10:30;;;;;;;60.37;3.57;;;;;;;;;;5093434;28;20550;-69
2022/07/18 03:12:57;;;;;;;60.20;3.90;;;;;;;;;;5093687;28;20841;-70
2022/07/18 03:15:24;;;;;;;59.70;4.00;;;;;;;;;;5093649;28;20476;-70
2022/07/18 03:17:51;;;;;;;60.10;4.00;;;;;;;;;;5093265;28;20449;-69
2022/07/18 03:20:18;;;;;;;59.70;3.77;;;;;;;;;;5093316;28;20453;-69
2022/07/18 03:22:47;;;;;;;60.00;3.60;;;;;;;;;;5093211;28;20454;-69
2022/07/18 03:25:14;;;;;;;61.67;4.27;;;;;;;;;;5093185;28;20466;-70
2022/07/18 03:27:41;;;;;;;59.60;3.57;;;;;;;;;;5093193;28;20540;-69
2022/07/18 03:30:09;;;;;;;60.00;3.60;;;;;;;;;;5093331;28;20445;-70
2022/07/18 03:32:36;;;;;;;59.30;3.80;;;;;;;;;;5093174;28;20444;-70
2022/07/18 03:35:03;;;;;;;60.50;3.77;;;;;;;;;;5092923;28;20474;-69
2022/07/18 03:37:30;;;;;;;60.13;3.90;;;;;;;;;;5092772;28;20454;-69
2022/07/18 03:39:59;;;;;;;59.80;3.70;;;;;;;;;;5092794;28;21018;-69
2022/07/18 03:42:26;;;;;;;60.20;4.40;;;;;;;;;;5092965;28;20942;-70
2022/07/18 03:44:53;;;;;;;61.07;4.27;;;;;;;;;;5093303;28;20462;-69
2022/07/18 03:47:20;;;;;;;59.97;3.97;;;;;;;;;;5092477;28;20442;-68
2022/07/18 03:49:47;;;;;;;60.83;3.80;;;;;;;;;;5092925;28;20442;-70
2022/07/18 03:52:14;;;;;;;60.60;4.17;;;;;;;;;;5092566;28;20461;-68
2022/07/18 03:54:41;;;;;;;60.07;3.83;;;;;;;;;;5092791;28;20839;-70
2022/07/18 03:57:10;;;;;;;64.30;3.83;;;;;;;;;;5092486;28;20931;-70
2022/07/18 03:59:37;;;;;;;59.97;4.20;;;;;;;;;;5091886;28;20483;-69
2022/07/18 04:02:04;;;;;;;61.70;4.43;;;;;;;;;;5092614;28;20446;-69
2022/07/18 04:04:31;;;;;;;59.30;3.70;;;;;;;;;;5092399;28;20475;-70
2022/07/18 04:06:59;;;;;;;60.30;5.30;;;;;;;;;;5092455;28;20450;-69
2022/07/18 04:09:26;;;;;;;60.17;4.33;;;;;;;;;;5092530;28;20470;-70
2022/07/18 04:11:53;;;;;;;59.67;3.87;;;;;;;;;;5092668;28;20449;-69
2022/07/18 04:14:22;;;;;;;60.10;4.20;;;;;;;;;;5092411;28;20470;-69
2022/07/18 04:16:49;;;;;;;59.87;4.17;;;;;;;;;;5092810;28;20446;-69
2022/07/18 04:19:17;;;;;;;60.70;3.63;;;;;;;;;;5091901;28;21166;-70
2022/07/18 04:21:44;;;;;;;60.73;4.70;;;;;;;;;;5092536;28;20450;-70
2022/07/18 04:24:11;;;;;;;60.80;4.20;;;;;;;;;;5092354;28;20675;-70
2022/07/18 04:26:38;;;;;;;61.20;4.13;;;;;;;;;;5092502;28;20523;-68
2022/07/18 04:29:06;;;;;;;63.80;4.30;;;;;;;;;;5091996;28;20824;-69
2022/07/18 04:31:34;;;;;;;60.20;3.67;;;;;;;;;;5092202;28;20442;-70
2022/07/18 04:34:01;;;;;;;60.17;3.97;;;;;;;;;;5091830;28;20482;-70
2022/07/18 04:36:28;;;;;;;60.90;4.00;;;;;;;;;;5092118;28;20446;-70
2022/07/18 04:38:56;;;;;;;59.90;3.70;;;;;;;;;;5092119;28;20484;-69
2022/07/18 04:41:24;;;;;;;59.50;3.70;;;;;;;;;;5092075;28;20960;-70
2022/07/18 04:43:52;;;;;;;59.87;4.23;;;;;;;;;;5092192;28;20503;-69
2022/07/18 04:46:19;;;;;;;60.53;3.57;;;;;;;;;;5091811;28;20515;-69
2022/07/18 04:48:48;;;;;;;60.00;4.17;;;;;;;;;;5091942;28;20453;-69
2022/07/18 04:51:15;;;;;;;61.50;4.07;;;;;;;;;;5092230;28;20446;-71
2022/07/18 04:53:42;;;;;;;60.50;3.70;;;;;;;;;;5091624;28;20452;-69
2022/07/18 04:56:09;;;;;;;59.90;3.67;;;;;;;;;;5091942;28;20583;-70
2022/07/18 04:58:36;;;;;;;60.80;3.40;;;;;;;;;;5091899;28;20566;-69
2022/07/18 05:01:03;;;;;;;61.63;4.13;;;;;;;;;;5091860;28;20458;-70
2022/07/18 05:03:31;;;;;;;60.77;4.30;;;;;;;;;;5091991;28;20453;-70
2022/07/18 05:05:59;;;;;;;58.93;3.63;;;;;;;;;;5091972;28;20447;-68
2022/07/18 05:08:26;;;;;;;62.70;4.30;;;;;;;;;;5091602;28;20456;-70
2022/07/18 05:10:53;;;;;;;59.67;3.40;;;;;;;;;;5094272;28;20802;-70
2022/07/18 05:13:20;;;;;;;60.33;3.50;;;;;;;;;;5096285;28;20485;-69
2022/07/18 05:15:48;;;;;;;59.57;3.50;;;;;;;;;;5096305;28;20470;-69
2022/07/18 05:18:15;;;;;;;63.73;4.20;;;;;;;;;;5095674;28;20446;-69
2022/07/18 05:20:42;;;;;;;60.10;3.90;;;;;;;;;;5095657;28;20581;-69
2022/07/18 05:23:11;;;;;;;59.50;3.70;;;;;;;;;;5096160;28;20545;-70
2022/07/18 05:25:38;;;;;;;58.63;3.30;;;;;;;;;;5096455;28;20470;-69
2022/07/18 05:28:05;;;;;;;60.10;4.00;;;;;;;;;;5095421;28;20444;-69
2022/07/18 05:30:32;;;;;;;60.37;4.03;;;;;;;;;;5095494;28;20951;-68
2022/07/18 05:32:59;;;;;;;59.70;3.60;;;;;;;;;;5095588;28;20455;-70
2022/07/18 05:35:27;;;;;;;59.10;3.40;;;;;;;;;;5095504;28;20466;-68
2022/07/18 05:37:54;;;;;;;59.77;3.97;;;;;;;;;;5095327;28;20451;-70
2022/07/18 05:40:22;;;;;;;59.37;3.50;;;;;;;;;;5095467;28;20478;-69
2022/07/18 05:42:50;;;;;;;59.57;3.40;;;;;;;;;;5095414;28;20457;-70
2022/07/18 05:45:17;;;;;;;59.80;3.67;;;;;;;;;;5095260;28;20466;-70
2022/07/18 05:47:44;;;;;;;59.77;3.70;;;;;;;;;;5095424;28;20447;-70
2022/07/18 05:50:12;;;;;;;59.77;3.80;;;;;;;;;;5095601;28;20531;-70
2022/07/18 05:52:39;;;;;;;60.57;3.83;;;;;;;;;;5093667;28;20735;-70
2022/07/18 05:55:07;;;;;;;59.50;3.77;;;;;;;;;;5093685;28;20497;-70
2022/07/18 05:57:35;;;;;;;62.20;3.17;;;;;;;;;;5095476;28;20452;-70
2022/07/18 06:00:03;;;;;;;59.97;3.60;;;;;;;;;;5098812;28;20484;-70
2022/07/18 06:02:30;;;;;;;59.33;3.30;;;;;;;;;;5104132;28;20436;-69
2022/07/18 06:04:57;;;;;;;59.40;3.53;;;;;;;;;;5108948;28;20555;-69
2022/07/18 06:07:24;;;;;;;60.70;3.20;;;;;;;;;;5109900;28;20933;-70
2022/07/18 06:09:52;;;;;;;59.00;3.10;;;;;;;;;;5110889;28;20448;-69
2022/07/18 06:12:19;;;;;;;58.80;3.30;;;;;;;;;;5110738;28;20481;-69
2022/07/18 06:14:47;;;;;;;59.87;3.67;;;;;;;;;;5111604;28;20490;-68
2022/07/18 06:17:14;;;;;;;62.40;3.50;;;;;;;;;;5110603;28;20452;-69
2022/07/18 06:19:42;;;;;;;58.70;3.03;;;;;;;;;;5110270;28;20547;-70
2022/07/18 06:22:09;;;;;;;59.50;3.43;;;;;;;;;;5110122;28;20471;-69
2022/07/18 06:24:36;;;;;;;59.40;3.47;;;;;;;;;;5110860;28;20470;-68
2022/07/18 06:27:03;;;;;;;59.80;3.60;;;;;;;;;;5110796;28;20509;-69
2022/07/18 06:29:30;;;;;;;58.63;3.27;;;;;;;;;;5111631;28;20437;-68
2022/07/18 06:31:59;;;;;;;59.00;3.00;;;;;;;;;;5110900;28;20514;-70
2022/07/18 06:34:26;;;;;;;59.70;3.50;;;;;;;;;;5110705;28;20505;-70
2022/07/18 06:36:53;;;;;;;58.90;3.37;;;;;;;;;;5110756;28;20538;-69
2022/07/18 06:39:20;;;;;;;59.50;3.70;;;;;;;;;;5110952;28;20502;-69
2022/07/18 06:41:47;;;;;;;59.60;3.30;;;;;;;;;;5110109;28;20450;-70
2022/07/18 06:44:14;;;;;;;58.77;3.47;;;;;;;;;;5110901;28;20491;-68
2022/07/18 06:46:42;;;;;;;59.03;3.33;;;;;;;;;;5110409;28;20464;-70
2022/07/18 06:49:10;;;;;;;65.03;4.20;;;;;;;;;;5110868;28;20466;-68
2022/07/18 06:51:37;;;;;;;59.20;3.40;;;;;;;;;;5111317;28;20470;-69
2022/07/18 06:54:05;;;;;;;59.47;3.60;;;;;;;;;;5111664;28;20870;-69
2022/07/18 06:56:32;;;;;;;59.60;3.57;;;;;;;;;;5111404;28;20481;-69
2022/07/18 06:58:59;;;;;;;60.00;4.20;;;;;;;;;;5111537;28;20466;-68
2022/07/18 07:01:26;;;;;;;59.27;3.60;;;;;;;;;;5111674;28;20446;-69
2022/07/18 07:03:54;;;;;;;59.80;4.20;;;;;;;;;;5110768;28;20463;-69
2022/07/18 07:06:22;;;;;;;59.00;3.83;;;;;;;;;;5112092;28;20639;-70
2022/07/18 07:08:49;;;;;;;59.30;3.80;;;;;;;;;;5110638;28;20506;-68
2022/07/18 07:11:16;;;;;;;61.00;3.83;;;;;;;;;;5110533;28;20446;-70
2022/07/18 07:13:43;;;;;;;58.67;3.50;;;;;;;;;;5111015;28;20478;-69
2022/07/18 07:16:10;;;;;;;59.80;3.30;;;;;;;;;;5110322;28;20534;-70
2022/07/18 07:18:38;;;;;;;59.50;3.50;;;;;;;;;;5110590;28;20443;-69
2022/07/18 07:21:05;;;;;;;59.47;3.70;;;;;;;;;;5110969;28;20554;-70
2022/07/18 07:23:33;;;;;;;59.47;3.80;;;;;;;;;;5110632;28;20506;-70
2022/07/18 07:26:01;;;;;;;59.20;3.40;;;;;;;;;;5110688;28;20913;-69
2022/07/18 07:28:28;;;;;;;59.50;3.40;;;;;;;;;;5110199;28;20481;-69
2022/07/18 07:30:55;;;;;;;59.20;3.37;;;;;;;;;;5110489;28;20438;-70
2022/07/18 07:33:22;;;;;;;58.70;2.93;;;;;;;;;;5112508;28;20493;-69
2022/07/18 07:35:49;;;;;;;59.10;3.53;;;;;;;;;;5112148;28;20498;-69
2022/07/18 07:38:18;;;;;;;59.37;3.27;;;;;;;;;;5110314;28;20533;-69
2022/07/18 07:40:47;;;;;;;59.67;3.47;;;;;;;;;;5111484;28;20690;-70
2022/07/18 07:43:15;;;;;;;59.30;3.50;;;;;;;;;;5109139;28;20450;-69
2022/07/18 07:45:43;;;;;;;59.57;3.53;;;;;;;;;;5109782;28;20488;-69
2022/07/18 07:48:10;;;;;;;60.60;3.20;;;;;;;;;;5110083;28;20481;-70
2022/07/18 07:50:38;;;;;;;60.70;3.60;;;;;;;;;;5101162;28;20434;-70
2022/07/18 07:53:05;;;;;;;58.70;2.90;;;;;;;;;;5093284;28;20435;-70
2022/07/18 07:55:32;;;;;;;60.87;4.00;;;;;;;;;;5093269;28;20466;-70
2022/07/18 07:58:01;;;;;;;60.47;3.20;;;;;;;;;;5092889;28;20525;-71
2022/07/18 08:00:28;;;;;;;58.73;3.00;;;;;;;;;;5095123;28;20573;-70
2022/07/18 08:02:56;;;;;;;60.77;3.50;;;;;;;;;;5093842;28;20890;-70
2022/07/18 08:05:24;;;;;;;61.53;3.77;;;;;;;;;;5092802;28;20474;-68
2022/07/18 08:07:51;;;;;;;60.13;3.53;;;;;;;;;;5092858;28;20952;-67
2022/07/18 08:10:18;;;;;;;59.97;3.20;;;;;;;;;;5092673;28;20535;-67
2022/07/18 08:12:45;;;;;;;58.17;3.20;;;;;;;;;;5092484;28;20590;-67
2022/07/18 08:15:14;;;;;;;58.30;2.90;;;;;;;;;;5092771;28;20463;-68
2022/07/18 08:17:41;;;;;;;60.13;3.83;;;;;;;;;;5092370;28;20531;-67
2022/07/18 08:20:09;;;;;;;58.13;3.10;;;;;;;;;;5092517;28;20839;-68
2022/07/18 08:22:36;;;;;;;60.73;4.30;;;;;;;;;;5092371;28;20833;-68
2022/07/18 08:25:04;;;;;;;58.97;3.57;;;;;;;;;;5092049;28;20554;-68
2022/07/18 08:27:31;;;;;;;59.10;3.40;;;;;;;;;;5092268;28;20452;-69
2022/07/18 08:29:58;;;;;;;59.40;3.50;;;;;;;;;;5092364;28;20873;-69
2022/07/18 08:32:26;;;;;;;59.20;3.20;;;;;;;;;;5092136;28;20459;-69
2022/07/18 08:34:53;;;;;;;58.60;3.53;;;;;;;;;;5092101;28;20484;-69
2022/07/18 08:37:21;;;;;;;59.20;3.50;;;;;;;;;;5091999;28;20467;-69
2022/07/18 08:39:48;;;;;;;59.17;3.40;;;;;;;;;;5091968;28;20476;-68
2022/07/18 08:42:17;;;;;;;58.90;3.17;;;;;;;;;;5092035;28;20950;-69
2022/07/18 08:44:44;;;;;;;58.63;3.00;;;;;;;;;;5092039;28;20477;-68
2022/07/18 08:47:13;;;;;;;60.20;3.50;;;;;;;;;;5091891;28;20458;-70
2022/07/18 08:49:41;;;;;;;59.07;2.90;;;;;;;;;;5092114;28;20455;-69
2022/07/18 08:52:09;;;;;;;60.40;3.07;;;;;;;;;;5091941;28;20453;-69
2022/07/18 08:54:37;;;;;;;58.37;3.03;;;;;;;;;;5092010;28;20466;-69
2022/07/18 08:57:04;;;;;;;59.20;3.10;;;;;;;;;;5091798;28;20456;-67
2022/07/18 08:59:31;;;;;;;58.37;2.83;;;;;;;;;;5091717;28;20453;-69
2022/07/18 09:01:58;;;;;;;58.40;3.13;;;;;;;;;;5091956;28;20456;-68
2022/07/18 09:04:38;;;;;;;58.67;3.10;;;;;;;;;;5091833;28;20553;-69
2022/07/18 09:07:08;;;;;;;61.07;3.43;;;;;;;;;;5091988;28;20483;-69
2022/07/18 09:09:35;;;;;;;60.37;3.10;;;;;;;;;;5092149;28;20450;-69
2022/07/18 09:12:03;;;;;;;59.07;3.10;;;;;;;;;;5092091;28;20438;-68
2022/07/18 09:14:31;;;;;;;58.43;2.87;;;;;;;;;;5091761;28;20463;-69
2022/07/18 09:17:03;;;;;;;58.50;3.00;;;;;;;;;;5091716;28;20455;-68
2022/07/18 09:19:30;;;;;;;58.80;3.07;;;;;;;;;;5091395;28;20446;-68
2022/07/18 09:22:12;;;;;;;59.27;3.53;;;;;;;;;;5091805;28;20486;-68
2022/07/18 09:24:52;;;;;;;58.57;3.00;;;;;;;;;;5091596;28;20473;-68
2022/07/18 09:27:40;;;;;;;58.60;2.97;;;;;;;;;;5091386;28;20446;-68
2022/07/18 09:30:12;;;;;;;59.20;3.27;;;;;;;;;;5086747;28;20954;-68
2022/07/18 09:32:40;;;;;;;58.70;2.80;;;;;;;;;;5091801;28;20454;-70
2022/07/18 09:35:08;;;;;;;59.13;2.97;;;;;;;;;;5091377;28;20470;-70
2022/07/18 09:37:35;;;;;;;58.37;2.60;;;;;;;;;;5091407;28;20541;-70
2022/07/18 09:40:19;;;;;;;58.60;2.60;;;;;;;;;;5091255;28;20489;-71
2022/07/18 09:42:50;;;;;;;57.97;2.83;;;;;;;;;;5091837;28;20804;-70
2022/07/18 09:45:17;;;;;;;58.90;3.00;;;;;;;;;;5091530;28;20474;-69
2022/07/18 09:47:50;;;;;;;58.00;2.83;;;;;;;;;;5091198;28;20448;-70
2022/07/18 09:50:21;;;;;;;59.10;3.10;;;;;;;;;;5091364;28;20973;-70
2022/07/18 09:52:56;;;;;;;59.17;3.10;;;;;;;;;;5091371;28;20457;-70
2022/07/18 09:55:25;;;;;;;57.97;2.67;;;;;;;;;;5091194;28;20477;-70
2022/07/18 09:57:58;;;;;;;58.40;2.90;;;;;;;;;;5093226;28;20450;-67
2022/07/18 10:00:26;;;;;;;58.03;2.90;;;;;;;;;;5094993;28;21208;-69
2022/07/18 10:02:53;;;;;;;58.30;3.00;;;;;;;;;;5094762;28;20938;-70
2022/07/18 10:05:20;;;;;;;69.33;3.00;;;;;;;;;;5094721;28;20470;-70
2022/07/18 10:07:47;;;;;;;58.00;2.50;;;;;;;;;;5094688;28;20537;-71
2022/07/18 10:10:15;;;;;;;58.17;2.80;;;;;;;;;;5095093;28;20438;-70
2022/07/18 10:12:44;;;;;;;57.97;2.57;;;;;;;;;;5094830;28;20453;-70
2022/07/18 10:15:11;;;;;;;58.03;2.60;;;;;;;;;;5094615;28;20498;-69
2022/07/18 10:17:39;;;;;;;58.10;2.50;;;;;;;;;;5094161;28;20529;-68
2022/07/18 10:20:06;;;;;;;58.70;2.70;;;;;;;;;;5094463;28;20446;-68
2022/07/18 10:22:36;;;;;;;58.07;2.77;;;;;;;;;;5094531;28;20550;-68
2022/07/18 10:25:05;;;;;;;58.00;2.60;;;;;;;;;;5094304;28;20986;-68
2022/07/18 10:27:47;;;;;;;57.93;2.83;;;;;;;;;;5094665;28;20442;-68
2022/07/18 10:30:16;;;;;;;58.80;2.90;;;;;;;;;;5094267;28;20537;-68
2022/07/18 10:32:44;;;;;;;58.17;2.80;;;;;;;;;;5094465;28;20460;-69
2022/07/18 10:35:11;;;;;;;58.30;2.70;;;;;;;;;;5094484;28;20470;-68
2022/07/18 10:37:39;;;;;;;57.30;2.53;;;;;;;;;;5094323;28;20435;-69
2022/07/18 10:40:25;;;;;;;56.97;2.57;;;;;;;;;;5094055;28;20449;-69
2022/07/18 10:43:07;;;;;;;58.20;2.60;;;;;;;;;;5094082;28;20472;-69
2022/07/18 10:45:45;;;;;;;56.80;2.50;;;;;;;;;;5094055;28;20554;-69
2022/07/18 10:48:31;;;;;;;57.13;2.53;;;;;;;;;;5094207;28;20449;-69
2022/07/18 10:51:01;;;;;;;57.27;2.37;;;;;;;;;;5093973;28;20510;-69
2022/07/18 10:53:43;;;;;;;56.67;2.30;;;;;;;;;;5093589;28;20446;-69
2022/07/18 10:56:11;;;;;;;57.37;2.60;;;;;;;;;;5093610;28;20537;-69
2022/07/18 10:58:40;;;;;;;57.00;2.63;;;;;;;;;;5093478;28;20443;-69
2022/07/18 11:01:13;;;;;;;57.10;2.40;;;;;;;;;;5094103;28;20818;-69
2022/07/18 11:03:40;;;;;;;57.07;2.30;;;;;;;;;;5093799;28;20526;-69
2022/07/18 11:06:07;;;;;;;56.57;2.73;;;;;;;;;;5093682;28;20474;-69
2022/07/18 11:08:34;;;;;;;57.20;2.50;;;;;;;;;;5093255;28;20443;-70
2022/07/18 11:11:05;;;;;;;56.90;2.27;;;;;;;;;;5093627;28;20568;-68
2022/07/18 11:13:33;;;;;;;56.60;2.70;;;;;;;;;;5092898;28;20451;-70
2022/07/18 11:16:02;;;;;;;56.93;2.60;;;;;;;;;;5093396;28;20450;-69
2022/07/18 11:18:31;;;;;;;57.30;2.90;;;;;;;;;;5093265;28;20823;-70
2022/07/18 11:20:59;;;;;;;57.00;2.60;;;;;;;;;;5093612;28;20872;-70
2022/07/18 11:23:27;;;;;;;56.97;3.03;;;;;;;;;;5093459;28;20449;-70
2022/07/18 11:25:55;;;;;;;57.00;2.67;;;;;;;;;;5093180;28;20541;-69
2022/07/18 11:28:23;;;;;;;56.57;2.30;;;;;;;;;;5093073;28;20545;-70
2022/07/18 11:31:00;;;;;;;58.30;2.60;;;;;;;;;;5093610;28;20496;-70
2022/07/18 11:33:29;;;;;;;56.77;2.50;;;;;;;;;;5093048;28;20460;-71
2022/07/18 11:36:04;;;;;;;56.17;2.67;;;;;;;;;;5093212;28;21037;-70
2022/07/18 11:38:32;;;;;;;56.90;2.60;;;;;;;;;;5093055;28;20791;-71
2022/07/18 11:40:59;;;;;;;55.73;2.10;;;;;;;;;;5092924;28;20526;-70
2022/07/18 11:43:27;;;;;;;56.00;2.33;;;;;;;;;;5093307;28;20886;-68
2022/07/18 11:46:01;;;;;;;56.33;2.30;;;;;;;;;;5093082;28;20454;-70
2022/07/18 11:48:28;;;;;;;56.07;2.30;;;;;;;;;;5092787;28;20826;-70
2022/07/18 11:50:55;;;;;;;56.60;2.40;;;;;;;;;;5092907;28;20477;-70
2022/07/18 11:53:24;;;;;;;56.60;2.73;;;;;;;;;;5092752;28;20446;-70
2022/07/18 11:55:51;;;;;;;57.87;2.33;;;;;;;;;;5092904;28;20625;-70
2022/07/18 11:58:19;;;;;;;55.90;2.73;;;;;;;;;;5092671;28;20507;-70
2022/07/18 12:00:47;;;;;;;57.10;2.60;;;;;;;;;;5092695;28;20460;-70
2022/07/18 12:03:15;;;;;;;56.07;2.10;;;;;;;;;;5092591;28;20446;-69
2022/07/18 12:05:43;;;;;;;56.33;2.20;;;;;;;;;;5092631;28;20477;-69
2022/07/18 12:08:27;;;;;;;55.73;2.40;;;;;;;;;;5092832;28;20454;-70
2022/07/18 12:11:07;;;;;;;57.27;2.53;;;;;;;;;;5092569;28;20486;-70
2022/07/18 12:13:42;;;;;;;56.77;2.57;;;;;;;;;;5092787;28;20446;-69
2022/07/18 12:16:09;;;;;;;57.77;2.50;;;;;;;;;;5092586;28;20538;-70
2022/07/18 12:18:36;;;;;;;56.47;2.00;;;;;;;;;;5092264;28;20550;-70
2022/07/18 12:21:09;;;;;;;56.63;2.40;;;;;;;;;;5092075;28;20442;-70
2022/07/18 12:23:38;;;;;;;55.97;1.90;;;;;;;;;;5092433;28;20449;-70
2022/07/18 12:26:05;;;;;;;55.57;2.37;;;;;;;;;;5092487;28;20442;-70
2022/07/18 12:28:32;;;;;;;55.50;2.50;;;;;;;;;;5092481;28;20838;-70
2022/07/18 12:30:59;;;;;;;56.57;2.00;;;;;;;;;;5092157;28;20578;-70
2022/07/18 12:33:27;;;;;;;56.10;2.20;;;;;;;;;;5092401;28;20830;-70
2022/07/18 12:35:58;;;;;;;56.77;2.40;;;;;;;;;;5092259;28;20450;-70
2022/07/18 12:38:25;;;;;;;56.63;2.27;;;;;;;;;;5091936;28;20525;-70
2022/07/18 12:40:56;;;;;;;55.57;2.00;;;;;;;;;;5091918;28;20443;-70
2022/07/18 12:43:24;;;;;;;55.93;2.13;;;;;;;;;;5091744;28;20450;-70
2022/07/18 12:45:52;;;;;;;56.60;2.30;;;;;;;;;;5091831;28;20493;-70
2022/07/18 12:48:19;;;;;;;56.07;2.17;;;;;;;;;;5091527;28;20457;-70
2022/07/18 12:50:46;;;;;;;56.37;2.27;;;;;;;;;;5091889;28;20533;-69
2022/07/18 12:53:14;;;;;;;56.87;2.57;;;;;;;;;;5091903;28;20822;-70
2022/07/18 12:55:41;;;;;;;56.60;2.23;;;;;;;;;;5091766;28;20466;-69
2022/07/18 12:58:09;;;;;;;56.60;1.93;;;;;;;;;;5091427;28;21018;-70
2022/07/18 13:00:36;;;;;;;57.97;2.07;;;;;;;;;;5092033;28;20454;-69
2022/07/18 13:03:04;;;;;;;56.10;2.23;;;;;;;;;;5092029;28;20769;-70
2022/07/18 13:05:31;;;;;;;57.30;2.60;;;;;;;;;;5091771;28;20462;-70
2022/07/18 13:07:58;;;;;;;56.47;2.17;;;;;;;;;;5091647;28;20439;-70
2022/07/18 13:10:26;;;;;;;56.30;2.73;;;;;;;;;;5092528;28;20451;-70
2022/07/18 13:12:53;;;;;;;56.30;2.30;;;;;;;;;;5091840;28;20485;-70
2022/07/18 13:15:21;;;;;;;56.50;2.43;;;;;;;;;;5091857;28;20547;-70
2022/07/18 13:17:49;;;;;;;56.17;2.20;;;;;;;;;;5091887;28;20537;-70
2022/07/18 13:20:16;;;;;;;56.50;2.40;;;;;;;;;;5091921;28;20550;-70
2022/07/18 13:22:43;;;;;;;56.50;2.23;;;;;;;;;;5092085;28;20443;-70
2022/07/18 13:25:11;;;;;;;56.00;2.27;;;;;;;;;;5091505;28;20947;-71
2022/07/18 13:27:38;;;;;;;57.50;2.40;;;;;;;;;;5091642;28;20447;-71
2022/07/18 13:30:08;;;;;;;55.57;2.60;;;;;;;;;;5091773;28;20489;-70
2022/07/18 13:32:37;;;;;;;56.97;2.83;;;;;;;;;;5094915;28;20482;-70
2022/07/18 13:35:04;;;;;;;56.87;2.53;;;;;;;;;;5095323;28;20478;-70
2022/07/18 13:37:31;;;;;;;56.77;2.40;;;;;;;;;;5095042;28;20450;-70
2022/07/18 13:39:59;;;;;;;55.43;2.10;;;;;;;;;;5095442;28;20446;-71
2022/07/18 13:42:26;;;;;;;56.63;2.83;;;;;;;;;;5095708;28;20438;-70
2022/07/18 13:44:53;;;;;;;56.10;2.43;;;;;;;;;;5095367;28;20470;-69
2022/07/18 13:47:20;;;;;;;56.83;2.30;;;;;;;;;;5094992;28;20453;-70
2022/07/18 13:49:49;;;;;;;55.57;2.10;;;;;;;;;;5095231;28;20443;-69
2022/07/18 13:52:16;;;;;;;56.57;2.03;;;;;;;;;;5094852;28;21064;-70
2022/07/18 13:54:43;;;;;;;56.67;2.30;;;;;;;;;;5095244;28;20907;-70
2022/07/18 13:57:11;;;;;;;55.57;2.13;;;;;;;;;;5094988;28;20894;-70
2022/07/18 13:59:38;;;;;;;56.40;2.20;;;;;;;;;;5094851;28;20537;-70
2022/07/18 14:02:05;;;;;;;55.80;2.40;;;;;;;;;;5095001;28;20620;-70
2022/07/18 14:04:32;;;;;;;56.47;2.53;;;;;;;;;;5094729;28;20466;-69
2022/07/18 14:07:01;;;;;;;57.43;2.47;;;;;;;;;;5094616;28;20446;-70
2022/07/18 14:09:28;;;;;;;56.27;2.20;;;;;;;;;;5094457;28;20493;-70
2022/07/18 14:11:56;;;;;;;56.27;2.20;;;;;;;;;;5094656;28;20492;-70
2022/07/18 14:14:23;;;;;;;56.50;2.60;;;;;;;;;;5094807;28;20473;-70
2022/07/18 14:16:51;;;;;;;56.37;2.47;;;;;;;;;;5094677;28;20445;-70
2022/07/18 14:19:19;;;;;;;56.47;2.17;;;;;;;;;;5094241;28;20927;-70
2022/07/18 14:21:46;;;;;;;56.20;2.30;;;;;;;;;;5094754;28;20481;-68
2022/07/18 14:24:15;;;;;;;56.77;2.40;;;;;;;;;;5094420;28;20462;-70
2022/07/18 14:26:42;;;;;;;56.20;2.33;;;;;;;;;;5094695;28;20453;-70
2022/07/18 14:29:09;;;;;;;56.17;2.33;;;;;;;;;;5094187;28;20457;-70
2022/07/18 14:31:36;;;;;;;56.37;2.20;;;;;;;;;;5094494;28;20565;-69
2022/07/18 14:34:04;;;;;;;55.33;2.30;;;;;;;;;;5094321;28;20849;-70
2022/07/18 14:36:31;;;;;;;55.97;2.20;;;;;;;;;;5094406;28;20443;-70
2022/07/18 14:38:58;;;;;;;57.07;2.20;;;;;;;;;;5094057;28;20831;-70